createdAt,value
2022-12-11T00:00:15.869Z,98376.09
2022-12-11T00:03:19.245Z,98368.75
2022-12-11T00:06:23.435Z,98359.44
2022-12-11T00:09:26.725Z,98352.69
2022-12-11T00:12:30.674Z,98343.50
2022-12-11T00:15:33.428Z,98339.56
2022-12-11T00:18:36.442Z,98335.09
2022-12-11T00:21:39.253Z,98338.72
2022-12-11T00:24:41.756Z,98330.41
2022-12-11T00:27:46.126Z,98327.06
2022-12-11T00:30:48.676Z,98333.97
2022-12-11T00:33:51.917Z,98332.34
2022-12-11T00:36:54.423Z,98332.53
2022-12-11T00:39:57.311Z,98336.06
2022-12-11T00:42:59.820Z,98341.31
2022-12-11T00:46:02.790Z,98325.00
2022-12-11T00:49:05.450Z,98326.09
2022-12-11T00:52:08.462Z,98322.69
2022-12-11T00:55:11.586Z,98332.25
2022-12-11T00:58:14.668Z,98329.81
2022-12-11T01:01:20.933Z,98334.25
2022-12-11T01:04:23.906Z,98323.19
2022-12-11T01:07:26.783Z,98328.41
2022-12-11T01:10:31.554Z,98342.94
2022-12-11T01:13:34.303Z,98323.56
2022-12-11T01:16:37.274Z,98326.38
2022-12-11T01:19:39.860Z,98352.31
2022-12-11T01:22:42.608Z,98347.09
2022-12-11T01:25:45.202Z,98344.44
2022-12-11T01:28:52.135Z,98341.94
2022-12-11T01:31:54.722Z,98337.03
2022-12-11T01:34:57.544Z,98342.41
2022-12-11T01:37:59.995Z,98350.19
2022-12-11T01:41:03.419Z,98346.87
2022-12-11T01:44:29.015Z,98349.22
2022-12-11T01:47:31.798Z,98351.91
2022-12-11T01:50:39.059Z,98341.94
2022-12-11T01:53:48.711Z,98357.16
2022-12-11T01:56:53.319Z,98348.06
2022-12-11T01:59:56.318Z,98384.72
2022-12-11T02:02:58.751Z,98367.00
2022-12-11T02:06:02.660Z,98369.87
2022-12-11T02:09:09.268Z,98374.16
2022-12-11T02:12:36.788Z,98369.87
2022-12-11T02:15:57.633Z,98379.69
2022-12-11T02:19:30.658Z,98347.72
2022-12-11T02:22:58.772Z,98345.41
2022-12-11T02:26:01.441Z,98373.59
2022-12-11T02:29:12.720Z,98369.31
2022-12-11T02:32:22.484Z,98362.13
2022-12-11T02:35:35.905Z,98364.91
2022-12-11T02:38:41.797Z,98384.69
2022-12-11T02:41:49.249Z,98364.59
2022-12-11T02:44:53.853Z,98367.81
2022-12-11T02:48:01.021Z,98365.62
2022-12-11T02:51:06.326Z,98357.81
2022-12-11T02:54:26.952Z,98357.31
2022-12-11T02:57:43.401Z,98358.12
2022-12-11T03:00:46.680Z,98357.41
2022-12-11T03:03:49.494Z,98354.69
2022-12-11T03:06:56.480Z,98354.31
2022-12-11T03:09:59.663Z,98361.81
2022-12-11T03:13:03.102Z,98340.75
2022-12-11T03:16:31.037Z,98347.41
2022-12-11T03:19:39.894Z,98337.44
2022-12-11T03:23:08.875Z,98332.44
2022-12-11T03:26:14.543Z,98347.87
2022-12-11T03:29:24.719Z,98356.31
2022-12-11T03:32:31.407Z,98340.91
2022-12-11T03:35:37.133Z,98337.66
2022-12-11T03:39:07.286Z,98348.00
2022-12-11T03:42:13.901Z,98345.66
2022-12-11T03:45:19.178Z,98327.81
2022-12-11T03:48:25.985Z,98342.88
2022-12-11T03:51:31.683Z,98345.78
2022-12-11T03:54:35.239Z,98347.53
2022-12-11T03:57:38.527Z,98341.44
2022-12-11T04:00:43.758Z,98339.69
2022-12-11T04:03:46.540Z,98338.00
2022-12-11T04:06:49.103Z,98349.91
2022-12-11T04:09:51.915Z,98363.59
2022-12-11T04:12:54.435Z,98344.34
2022-12-11T04:15:57.120Z,98368.03
2022-12-11T04:19:17.998Z,98352.84
2022-12-11T04:22:39.647Z,98346.78
2022-12-11T04:25:42.196Z,98365.53
2022-12-11T04:28:47.019Z,98348.75
2022-12-11T04:31:50.775Z,98371.66
2022-12-11T04:34:53.458Z,98374.16
2022-12-11T04:37:56.143Z,98378.37
2022-12-11T04:41:11.494Z,98366.50
2022-12-11T04:44:14.074Z,98375.03
2022-12-11T04:47:17.041Z,98380.84
2022-12-11T04:50:19.575Z,98385.91
2022-12-11T04:53:22.534Z,98394.50
2022-12-11T04:56:24.929Z,98403.06
2022-12-11T04:59:27.772Z,98403.06
2022-12-11T05:02:30.427Z,98403.78
2022-12-11T05:05:33.162Z,98411.34
2022-12-11T05:08:37.772Z,98423.16
2022-12-11T05:11:40.518Z,98422.31
2022-12-11T05:14:42.947Z,98429.94
2022-12-11T05:17:45.678Z,98431.59
2022-12-11T05:21:03.157Z,98424.91
2022-12-11T05:24:06.261Z,98440.19
2022-12-11T05:27:08.808Z,98429.94
2022-12-11T05:30:11.721Z,98434.25
2022-12-11T05:33:14.475Z,98461.50
2022-12-11T05:36:20.842Z,98433.34
2022-12-11T05:39:23.345Z,98430.81
2022-12-11T05:42:28.960Z,98431.81
2022-12-11T05:45:31.714Z,98441.16
2022-12-11T05:48:35.108Z,98444.41
2022-12-11T05:51:39.766Z,98449.62
2022-12-11T05:54:42.555Z,98440.41
2022-12-11T05:57:45.066Z,98425.03
2022-12-11T06:00:48.531Z,98429.22
2022-12-11T06:03:51.768Z,98445.34
2022-12-11T06:06:55.131Z,98454.56
2022-12-11T06:09:57.802Z,98443.53
2022-12-11T06:13:00.293Z,98459.00
2022-12-11T06:16:06.027Z,98462.31
2022-12-11T06:19:14.039Z,98470.09
2022-12-11T06:22:17.067Z,98484.44
2022-12-11T06:25:19.615Z,98475.22
2022-12-11T06:28:22.443Z,98489.66
2022-12-11T06:31:24.884Z,98479.22
2022-12-11T06:34:27.767Z,98496.31
2022-12-11T06:37:30.276Z,98493.75
2022-12-11T06:40:33.021Z,98514.69
2022-12-11T06:43:37.049Z,98488.47
2022-12-11T06:46:39.823Z,98509.66
2022-12-11T06:49:43.108Z,98511.50
2022-12-11T06:52:45.787Z,98523.59
2022-12-11T06:55:48.213Z,98533.81
2022-12-11T06:58:52.042Z,98535.59
2022-12-11T07:01:54.650Z,98557.53
2022-12-11T07:04:57.949Z,98555.00
2022-12-11T07:08:00.412Z,98542.25
2022-12-11T07:11:08.947Z,98559.97
2022-12-11T07:14:11.537Z,98559.87
2022-12-11T07:17:14.405Z,98560.72
2022-12-11T07:20:17.397Z,98569.75
2022-12-11T07:23:20.465Z,98579.12
2022-12-11T07:26:22.941Z,98579.78
2022-12-11T07:29:25.606Z,98582.97
2022-12-11T07:32:29.023Z,98591.13
2022-12-11T07:35:34.740Z,98600.59
2022-12-11T07:38:37.383Z,98598.34
2022-12-11T07:41:40.239Z,98598.34
2022-12-11T07:44:45.527Z,98604.69
2022-12-11T07:47:48.229Z,98618.06
2022-12-11T07:50:50.800Z,98637.31
2022-12-11T07:53:57.096Z,98630.22
2022-12-11T07:56:59.478Z,98634.16
2022-12-11T08:00:02.640Z,98636.63
2022-12-11T08:03:14.781Z,98644.06
2022-12-11T08:06:17.949Z,98650.03
2022-12-11T08:09:22.715Z,98661.13
2022-12-11T08:12:25.518Z,98663.59
2022-12-11T08:15:27.958Z,98669.25
2022-12-11T08:18:30.778Z,98669.41
2022-12-11T08:21:33.222Z,98687.19
2022-12-11T08:24:35.934Z,98680.97
2022-12-11T08:27:38.343Z,98693.56
2022-12-11T08:30:41.421Z,98695.44
2022-12-11T08:33:44.505Z,98683.94
2022-12-11T08:36:47.179Z,98698.66
2022-12-11T08:39:49.676Z,98697.00
2022-12-11T08:42:52.415Z,98703.66
2022-12-11T08:45:54.910Z,98704.94
2022-12-11T08:48:58.281Z,98711.88
2022-12-11T08:52:00.818Z,98710.03
2022-12-11T08:55:03.751Z,98712.69
2022-12-11T08:58:06.360Z,98711.97
2022-12-11T09:01:18.039Z,98716.00
2022-12-11T09:04:20.538Z,98732.19
2022-12-11T09:07:23.341Z,98725.38
2022-12-11T09:10:25.896Z,98748.28
2022-12-11T09:13:28.599Z,98724.25
2022-12-11T09:16:31.863Z,98724.25
2022-12-11T09:19:35.164Z,98747.94
2022-12-11T09:22:37.851Z,98736.16
2022-12-11T09:25:40.851Z,98739.69
2022-12-11T09:28:46.676Z,98738.59
2022-12-11T09:31:49.991Z,98736.66
2022-12-11T09:34:52.474Z,98750.34
2022-12-11T09:37:55.164Z,98753.72
2022-12-11T09:40:58.125Z,98736.09
2022-12-11T09:44:12.953Z,98733.09
2022-12-11T09:47:34.195Z,98732.56
2022-12-11T09:50:39.662Z,98737.63
2022-12-11T09:53:42.563Z,98740.41
2022-12-11T09:56:55.222Z,98750.94
2022-12-11T10:00:24.723Z,98736.50
2022-12-11T10:03:50.309Z,98744.75
2022-12-11T10:07:03.370Z,98724.47
2022-12-11T10:10:19.013Z,98720.81
2022-12-11T10:13:21.404Z,98711.47
2022-12-11T10:16:40.718Z,98713.25
2022-12-11T10:19:43.169Z,98717.31
2022-12-11T10:22:46.977Z,98724.94
2022-12-11T10:26:05.747Z,98740.69
2022-12-11T10:29:14.935Z,98736.84
2022-12-11T10:32:29.995Z,98723.78
2022-12-11T10:35:54.765Z,98760.13
2022-12-11T10:38:57.922Z,98746.59
2022-12-11T10:42:13.427Z,98748.34
2022-12-11T10:45:16.212Z,98753.41
2022-12-11T10:48:19.038Z,98752.75
2022-12-11T10:51:24.868Z,98769.81
2022-12-11T10:54:40.783Z,98768.19
2022-12-11T10:57:43.618Z,98773.06
2022-12-11T11:01:08.799Z,98772.25
2022-12-11T11:04:19.042Z,98774.78
2022-12-11T11:07:24.374Z,98766.84
2022-12-11T11:10:27.298Z,98769.34
2022-12-11T11:13:32.708Z,98771.75
2022-12-11T11:16:37.481Z,98777.62
2022-12-11T11:19:40.535Z,98768.88
2022-12-11T11:22:47.580Z,98777.53
2022-12-11T11:26:11.628Z,98757.56
2022-12-11T11:29:27.570Z,98760.13
2022-12-11T11:32:38.743Z,98753.03
2022-12-11T11:35:58.347Z,98757.19
2022-12-11T11:39:25.745Z,98759.00
2022-12-11T11:42:45.366Z,98766.06
2022-12-11T11:46:03.254Z,98792.00
2022-12-11T11:49:23.692Z,98788.59
2022-12-11T11:52:30.764Z,98796.50
2022-12-11T11:55:58.795Z,98795.38
2022-12-11T11:59:23.482Z,98808.12
2022-12-11T12:02:25.970Z,98797.41
2022-12-11T12:05:57.713Z,98801.69
2022-12-11T12:09:23.030Z,98820.28
2022-12-11T12:12:38.261Z,98822.63
2022-12-11T12:16:01.823Z,98815.41
2022-12-11T12:19:13.683Z,98828.34
2022-12-11T12:22:28.303Z,98817.50
2022-12-11T12:25:37.274Z,98832.50
2022-12-11T12:28:45.739Z,98827.63
2022-12-11T12:31:55.817Z,98827.50
2022-12-11T12:35:32.042Z,98841.19
2022-12-11T12:38:55.791Z,98827.44
2022-12-11T12:42:09.998Z,98840.66
2022-12-11T12:45:12.933Z,98836.28
2022-12-11T12:48:16.211Z,98829.47
2022-12-11T12:51:19.535Z,98833.09
2022-12-11T12:54:22.571Z,98839.91
2022-12-11T12:57:25.320Z,98845.66
2022-12-11T13:00:31.370Z,98842.22
2022-12-11T13:03:38.248Z,98861.91
2022-12-11T13:06:42.906Z,98879.28
2022-12-11T13:09:58.291Z,98890.19
2022-12-11T13:13:02.524Z,98888.63
2022-12-11T13:16:17.348Z,98895.50
2022-12-11T13:19:25.733Z,98891.75
2022-12-11T13:22:28.574Z,98887.47
2022-12-11T13:25:36.257Z,98900.47
2022-12-11T13:28:42.876Z,98905.34
2022-12-11T13:31:45.761Z,98904.91
2022-12-11T13:34:56.258Z,98905.41
2022-12-11T13:38:06.926Z,98907.16
2022-12-11T13:41:13.453Z,98917.69
2022-12-11T13:44:23.618Z,98935.63
2022-12-11T13:47:27.247Z,98941.56
2022-12-11T13:50:34.603Z,98925.78
2022-12-11T13:53:37.655Z,98919.50
2022-12-11T13:56:40.342Z,98918.59
2022-12-11T13:59:48.402Z,98924.84
2022-12-11T14:02:53.659Z,98926.47
2022-12-11T14:05:56.481Z,98927.41
2022-12-11T14:09:01.925Z,98932.97
2022-12-11T14:12:04.997Z,98939.19
2022-12-11T14:15:14.756Z,98960.56
2022-12-11T14:18:28.717Z,98959.03
2022-12-11T14:21:32.089Z,98968.50
2022-12-11T14:24:34.914Z,98969.56
2022-12-11T14:27:37.314Z,98982.53
2022-12-11T14:30:47.374Z,98988.16
2022-12-11T14:33:58.123Z,98991.56
2022-12-11T14:37:05.355Z,98995.22
2022-12-11T14:40:18.783Z,99001.03
2022-12-11T14:43:30.665Z,99012.31
2022-12-11T14:46:46.260Z,99010.94
2022-12-11T14:49:55.437Z,99003.88
2022-12-11T14:53:07.975Z,99010.06
2022-12-11T14:56:19.334Z,99012.84
2022-12-11T14:59:30.164Z,99020.00
2022-12-11T15:02:36.730Z,99012.34
2022-12-11T15:05:51.260Z,99011.38
2022-12-11T15:08:54.513Z,99025.06
2022-12-11T15:12:07.094Z,99028.66
2022-12-11T15:15:15.830Z,99018.37
2022-12-11T15:18:24.574Z,99042.84
2022-12-11T15:21:33.903Z,99035.22
2022-12-11T15:24:44.090Z,99048.87
2022-12-11T15:27:51.434Z,99044.12
2022-12-11T15:31:00.966Z,99053.25
2022-12-11T15:34:03.957Z,99060.19
2022-12-11T15:37:38.485Z,99052.00
2022-12-11T15:40:43.443Z,99060.44
2022-12-11T15:43:45.948Z,99061.28
2022-12-11T15:46:48.696Z,99058.88
2022-12-11T15:49:57.115Z,99054.72
2022-12-11T15:53:00.036Z,99051.94
2022-12-11T15:56:02.661Z,99054.56
2022-12-11T15:59:07.043Z,99055.47
2022-12-11T16:02:12.817Z,99057.25
2022-12-11T16:05:16.279Z,99061.56
2022-12-11T16:08:22.579Z,99058.16
2022-12-11T16:11:25.447Z,99068.41
2022-12-11T16:14:28.054Z,99073.63
2022-12-11T16:17:31.443Z,99062.66
2022-12-11T16:20:36.210Z,99083.94
2022-12-11T16:23:39.045Z,99088.22
2022-12-11T16:26:41.555Z,99091.63
2022-12-11T16:29:44.717Z,99077.84
2022-12-11T16:32:47.320Z,99086.66
2022-12-11T16:35:50.192Z,99079.69
2022-12-11T16:38:54.203Z,99085.91
2022-12-11T16:41:57.311Z,99094.37
2022-12-11T16:45:10.662Z,99092.81
2022-12-11T16:48:13.683Z,99105.53
2022-12-11T16:51:16.924Z,99110.53
2022-12-11T16:54:19.714Z,99108.69
2022-12-11T16:57:22.306Z,99109.13
2022-12-11T17:00:26.803Z,99101.47
2022-12-11T17:03:30.649Z,99107.38
2022-12-11T17:06:33.969Z,99108.19
2022-12-11T17:09:36.596Z,99100.75
2022-12-11T17:12:39.368Z,99116.03
2022-12-11T17:15:43.218Z,99104.84
2022-12-11T17:18:48.308Z,99100.75
2022-12-11T17:21:51.764Z,99094.63
2022-12-11T17:24:54.954Z,99101.63
2022-12-11T17:27:57.442Z,99102.31
2022-12-11T17:31:13.981Z,99102.37
2022-12-11T17:34:16.562Z,99110.25
2022-12-11T17:37:19.295Z,99105.91
2022-12-11T17:40:26.435Z,99124.50
2022-12-11T17:43:29.227Z,99118.75
2022-12-11T17:46:31.885Z,99120.31
2022-12-11T17:49:34.635Z,99114.28
2022-12-11T17:52:43.825Z,99121.34
2022-12-11T17:55:48.266Z,99117.13
2022-12-11T17:58:50.956Z,99116.31
2022-12-11T18:01:53.801Z,99120.62
2022-12-11T18:04:56.578Z,99112.03
2022-12-11T18:07:59.073Z,99119.97
2022-12-11T18:11:16.601Z,99120.75
2022-12-11T18:14:19.194Z,99122.50
2022-12-11T18:17:21.940Z,99121.50
2022-12-11T18:20:25.263Z,99124.22
2022-12-11T18:23:28.428Z,99121.50
2022-12-11T18:26:31.309Z,99129.22
2022-12-11T18:29:34.088Z,99128.41
2022-12-11T18:32:36.626Z,99137.75
2022-12-11T18:35:40.821Z,99143.03
2022-12-11T18:38:43.851Z,99142.09
2022-12-11T18:41:58.294Z,99153.00
2022-12-11T18:45:10.216Z,99145.50
2022-12-11T18:48:14.637Z,99151.59
2022-12-11T18:51:23.707Z,99154.91
2022-12-11T18:54:26.543Z,99153.13
2022-12-11T18:57:29.143Z,99159.22
2022-12-11T19:00:32.276Z,99155.91
2022-12-11T19:03:35.627Z,99167.00
2022-12-11T19:06:38.639Z,99159.44
2022-12-11T19:09:46.182Z,99167.03
2022-12-11T19:12:50.819Z,99173.78
2022-12-11T19:15:53.492Z,99178.22
2022-12-11T19:18:58.868Z,99162.91
2022-12-11T19:22:01.783Z,99183.31
2022-12-11T19:25:06.629Z,99173.94
2022-12-11T19:28:10.007Z,99172.25
2022-12-11T19:31:16.930Z,99179.91
2022-12-11T19:34:19.744Z,99181.66
2022-12-11T19:37:22.499Z,99190.22
2022-12-11T19:40:26.245Z,99176.56
2022-12-11T19:43:28.999Z,99182.53
2022-12-11T19:46:31.592Z,99175.88
2022-12-11T19:49:34.411Z,99175.97
2022-12-11T19:52:41.495Z,99186.78
2022-12-11T19:55:51.808Z,99190.06
2022-12-11T19:58:54.607Z,99184.25
2022-12-11T20:01:57.444Z,99192.78
2022-12-11T20:05:00.181Z,99198.09
2022-12-11T20:08:35.344Z,99201.28
2022-12-11T20:11:25.875Z,99199.81
2022-12-11T20:14:29.482Z,99198.00
2022-12-11T20:17:33.457Z,99192.22
2022-12-11T20:20:37.071Z,99200.66
2022-12-11T20:23:41.377Z,99213.50
2022-12-11T20:26:44.131Z,99200.81
2022-12-11T20:29:47.041Z,99211.13
2022-12-11T20:32:51.014Z,99215.47
2022-12-11T20:35:53.753Z,99203.75
2022-12-11T20:38:56.417Z,99213.94
2022-12-11T20:42:01.090Z,99200.44
2022-12-11T20:45:04.077Z,99213.19
2022-12-11T20:48:06.906Z,99206.53
2022-12-11T20:51:11.998Z,99221.81
2022-12-11T20:54:14.770Z,99223.34
2022-12-11T20:57:17.383Z,99227.72
2022-12-11T21:00:20.224Z,99215.13
2022-12-11T21:03:22.766Z,99218.63
2022-12-11T21:06:31.173Z,99229.44
2022-12-11T21:09:34.421Z,99222.00
2022-12-11T21:12:40.289Z,99238.19
2022-12-11T21:15:43.502Z,99230.59
2022-12-11T21:18:47.000Z,99239.94
2022-12-11T21:21:49.944Z,99237.41
2022-12-11T21:24:52.735Z,99237.41
2022-12-11T21:27:55.518Z,99238.47
2022-12-11T21:31:04.917Z,99245.25
2022-12-11T21:34:07.802Z,99262.16
2022-12-11T21:37:10.555Z,99270.03
2022-12-11T21:40:13.666Z,99271.72
2022-12-11T21:43:16.607Z,99271.69
2022-12-11T21:46:22.258Z,99275.25
2022-12-11T21:49:25.094Z,99282.09
2022-12-11T21:52:27.570Z,99282.88
2022-12-11T21:55:30.344Z,99282.13
2022-12-11T21:58:33.081Z,99277.97
2022-12-11T22:01:42.124Z,99292.41
2022-12-11T22:04:47.455Z,99283.81
2022-12-11T22:07:50.103Z,99297.41
2022-12-11T22:10:53.485Z,99297.50
2022-12-11T22:13:56.523Z,99291.56
2022-12-11T22:16:59.366Z,99298.38
2022-12-11T22:20:02.201Z,99296.62
2022-12-11T22:23:05.070Z,99311.09
2022-12-11T22:26:09.257Z,99298.41
2022-12-11T22:29:11.982Z,99307.00
2022-12-11T22:32:14.474Z,99305.31
2022-12-11T22:35:17.261Z,99297.75
2022-12-11T22:38:19.908Z,99294.38
2022-12-11T22:41:26.513Z,99295.97
2022-12-11T22:44:29.001Z,99297.84
2022-12-11T22:47:31.736Z,99287.59
2022-12-11T22:50:36.673Z,99280.09
2022-12-11T22:53:39.923Z,99297.19
2022-12-11T22:56:42.599Z,99298.03
2022-12-11T22:59:45.503Z,99302.34
2022-12-11T23:02:48.522Z,99312.44
2022-12-11T23:05:51.333Z,99307.47
2022-12-11T23:08:58.188Z,99305.06
2022-12-11T23:12:01.677Z,99308.44
2022-12-11T23:15:04.660Z,99314.47
2022-12-11T23:18:07.488Z,99318.66
2022-12-11T23:21:10.539Z,99319.62
2022-12-11T23:24:13.395Z,99313.69
2022-12-11T23:27:15.915Z,99324.56
2022-12-11T23:30:20.151Z,99328.88
2022-12-11T23:33:22.559Z,99312.00
2022-12-11T23:36:26.478Z,99314.50
2022-12-11T23:39:29.420Z,99314.56
2022-12-11T23:42:33.776Z,99305.31
2022-12-11T23:45:36.380Z,99317.16
2022-12-11T23:48:39.368Z,99334.12
2022-12-11T23:51:41.919Z,99321.50
2022-12-11T23:54:44.588Z,99314.78
2022-12-11T23:57:47.028Z,99315.63
